KECG/ECG METAR and TAF weather

Enter ICAO airport designator
Station Type Date Time Source
KECG METAR 2019/12/11 16:54 UTC NOAA

KECG 111654Z 34012KT 10SM SCT032 07/00 A3036 RMK AO2 SLP279 T00720000


Station Type Date Time Source
KECG Decoded METAR 2019/12/11 16:54 UTC NOAA

ELIZABETH CITY C/G REGN AIRPORT , NC, United States (KECG) 36-15N 076-10W 11M
Dec 11, 2019 - 11:54 AM EST / 2019.12.11 1654 UTC
Wind: from the NNW (340 degrees) at 14 MPH (12 KT):0
Visibility: 10 mile(s):0
Sky conditions: partly cloudy
Temperature: 45.0 F (7.2 C)
Dew Point: 32.0 F (0.0 C)
Relative Humidity: 60%
Pressure (altimeter): 30.36 in. Hg (1028 hPa)
ob: KECG 111654Z 34012KT 10SM SCT032 07/00 A3036 RMK AO2 SLP279 T00720000
cycle: 17

Station Type Date Time Source
KECG TAF 2019/12/11 18:42 UTC NOAA

TAF KECG 111736Z 1118/1218 34012KT P6SM SCT030
TEMPO 1119/1122 BKN030
FM120100 35006KT P6SM SKC
FM121300 02011KT P6SM SKC
FM121600 04013G20KT P6SM SKC

Example: see airport list